sensor_id;sensor_type;location;lat;lon;timestamp;pressure;altitude;pressure_sealevel;temperature;humidity
14882;BME280;7533;51.278;12.588;2024-03-02T00:03:22;99062.44;;;26.00;52.90
14882;BME280;7533;51.278;12.588;2024-03-02T00:08:26;99056.00;;;26.01;52.76
14882;BME280;7533;51.278;12.588;2024-03-02T00:13:31;99058.72;;;26.01;52.85
14882;BME280;7533;51.278;12.588;2024-03-02T00:18:35;99050.94;;;25.98;52.82
14882;BME280;7533;51.278;12.588;2024-03-02T00:23:39;99038.72;;;26.02;52.76
14882;BME280;7533;51.278;12.588;2024-03-02T00:28:43;99039.75;;;26.01;52.89
14882;BME280;7533;51.278;12.588;2024-03-02T00:33:47;99049.06;;;25.99;53.25
14882;BME280;7533;51.278;12.588;2024-03-02T00:38:52;99044.16;;;26.02;53.04
14882;BME280;7533;51.278;12.588;2024-03-02T00:44:01;99032.44;;;26.02;53.16
14882;BME280;7533;51.278;12.588;2024-03-02T00:49:06;99028.41;;;26.06;52.91
14882;BME280;7533;51.278;12.588;2024-03-02T00:54:14;99024.16;;;26.03;52.88
14882;BME280;7533;51.278;12.588;2024-03-02T00:59:19;99021.78;;;26.00;53.02
14882;BME280;7533;51.278;12.588;2024-03-02T01:04:22;99021.97;;;26.07;52.71
14882;BME280;7533;51.278;12.588;2024-03-02T01:09:24;99029.91;;;26.08;52.78
14882;BME280;7533;51.278;12.588;2024-03-02T01:14:29;99020.59;;;26.03;53.00
14882;BME280;7533;51.278;12.588;2024-03-02T01:19:32;99013.81;;;25.99;52.91
14882;BME280;7533;51.278;12.588;2024-03-02T01:24:34;99021.59;;;25.94;53.05
14882;BME280;7533;51.278;12.588;2024-03-02T01:29:39;99029.69;;;25.85;53.11
14882;BME280;7533;51.278;12.588;2024-03-02T01:34:42;99021.25;;;25.89;52.99
14882;BME280;7533;51.278;12.588;2024-03-02T01:39:44;99025.66;;;25.81;53.15
14882;BME280;7533;51.278;12.588;2024-03-02T01:44:49;99026.28;;;25.75;53.44
14882;BME280;7533;51.278;12.588;2024-03-02T01:49:52;99031.66;;;25.67;53.71
14882;BME280;7533;51.278;12.588;2024-03-02T01:54:55;99024.34;;;25.59;53.48
14882;BME280;7533;51.278;12.588;2024-03-02T02:00:00;99024.34;;;25.59;53.87
14882;BME280;7533;51.278;12.588;2024-03-02T02:05:12;99025.00;;;25.53;54.05
14882;BME280;7533;51.278;12.588;2024-03-02T02:10:15;99016.84;;;25.45;54.09
14882;BME280;7533;51.278;12.588;2024-03-02T02:15:24;99020.19;;;25.39;54.14
14882;BME280;7533;51.278;12.588;2024-03-02T02:20:27;99013.88;;;25.30;54.47
14882;BME280;7533;51.278;12.588;2024-03-02T02:25:31;99016.25;;;25.25;54.39
14882;BME280;7533;51.278;12.588;2024-03-02T02:30:34;99010.47;;;25.20;54.58
14882;BME280;7533;51.278;12.588;2024-03-02T02:42:26;99016.59;;;25.04;54.81
14882;BME280;7533;51.278;12.588;2024-03-02T02:47:29;99010.28;;;24.96;55.19
14882;BME280;7533;51.278;12.588;2024-03-02T02:52:32;99010.25;;;24.88;55.13
14882;BME280;7533;51.278;12.588;2024-03-02T02:57:40;99007.47;;;24.79;55.42
14882;BME280;7533;51.278;12.588;2024-03-02T03:02:46;99007.41;;;24.71;55.80
14882;BME280;7533;51.278;12.588;2024-03-02T03:07:51;99011.78;;;24.64;55.81
14882;BME280;7533;51.278;12.588;2024-03-02T03:12:55;99018.13;;;24.55;55.96
14882;BME280;7533;51.278;12.588;2024-03-02T03:17:58;99022.13;;;24.51;56.34
14882;BME280;7533;51.278;12.588;2024-03-02T03:23:01;99031.72;;;24.45;56.29
14882;BME280;7533;51.278;12.588;2024-03-02T03:28:06;99024.22;;;24.39;56.51
14882;BME280;7533;51.278;12.588;2024-03-02T03:33:11;99028.38;;;24.34;56.77
14882;BME280;7533;51.278;12.588;2024-03-02T03:38:14;99033.56;;;24.27;56.62
14882;BME280;7533;51.278;12.588;2024-03-02T03:43:18;99031.31;;;24.22;56.98
14882;BME280;7533;51.278;12.588;2024-03-02T03:48:20;99030.94;;;24.17;57.10
14882;BME280;7533;51.278;12.588;2024-03-02T03:53:23;99030.53;;;24.12;57.28
14882;BME280;7533;51.278;12.588;2024-03-02T03:58:28;99034.56;;;24.08;57.18
14882;BME280;7533;51.278;12.588;2024-03-02T04:03:31;99039.59;;;24.03;57.29
14882;BME280;7533;51.278;12.588;2024-03-02T04:08:33;99044.59;;;23.98;57.60
14882;BME280;7533;51.278;12.588;2024-03-02T04:13:38;99051.47;;;23.92;57.83
14882;BME280;7533;51.278;12.588;2024-03-02T04:18:40;99054.63;;;23.88;57.92
14882;BME280;7533;51.278;12.588;2024-03-02T04:23:43;99064.00;;;23.84;58.06
14882;BME280;7533;51.278;12.588;2024-03-02T04:28:47;99059.94;;;23.80;58.17
14882;BME280;7533;51.278;12.588;2024-03-02T04:33:50;99059.53;;;23.74;58.20
14882;BME280;7533;51.278;12.588;2024-03-02T04:38:53;99071.47;;;23.72;58.37
14882;BME280;7533;51.278;12.588;2024-03-02T04:50:22;99088.44;;;23.64;58.45
14882;BME280;7533;51.278;12.588;2024-03-02T04:55:25;99076.91;;;23.62;58.44
14882;BME280;7533;51.278;12.588;2024-03-02T05:00:52;99084.47;;;23.59;58.62
14882;BME280;7533;51.278;12.588;2024-03-02T05:05:56;99077.38;;;23.58;58.78
14882;BME280;7533;51.278;12.588;2024-03-02T05:10:59;99080.50;;;23.53;58.81
14882;BME280;7533;51.278;12.588;2024-03-02T05:16:22;99083.38;;;23.52;58.83
14882;BME280;7533;51.278;12.588;2024-03-02T05:21:26;99092.59;;;23.49;59.04
14882;BME280;7533;51.278;12.588;2024-03-02T05:26:29;99086.78;;;23.44;59.06
14882;BME280;7533;51.278;12.588;2024-03-02T05:31:32;99090.50;;;23.43;59.18
14882;BME280;7533;51.278;12.588;2024-03-02T05:36:36;99101.56;;;23.40;59.28
14882;BME280;7533;51.278;12.588;2024-03-02T05:41:40;99104.59;;;23.37;59.32
14882;BME280;7533;51.278;12.588;2024-03-02T05:46:43;99115.66;;;23.34;59.42
14882;BME280;7533;51.278;12.588;2024-03-02T05:51:47;99119.53;;;23.31;59.44
14882;BME280;7533;51.278;12.588;2024-03-02T05:56:50;99130.00;;;23.34;59.54
14882;BME280;7533;51.278;12.588;2024-03-02T06:01:53;99130.31;;;23.31;59.38
14882;BME280;7533;51.278;12.588;2024-03-02T06:06:57;99138.00;;;23.26;59.58
14882;BME280;7533;51.278;12.588;2024-03-02T06:12:00;99144.56;;;23.23;59.66
14882;BME280;7533;51.278;12.588;2024-03-02T06:17:04;99137.44;;;23.22;59.86
14882;BME280;7533;51.278;12.588;2024-03-02T06:22:09;99143.13;;;23.19;59.86
14882;BME280;7533;51.278;12.588;2024-03-02T06:27:12;99146.00;;;23.18;59.83
14882;BME280;7533;51.278;12.588;2024-03-02T06:32:14;99142.56;;;23.16;59.94
14882;BME280;7533;51.278;12.588;2024-03-02T06:37:18;99141.72;;;23.15;59.98
14882;BME280;7533;51.278;12.588;2024-03-02T06:42:21;99149.81;;;23.15;59.98
14882;BME280;7533;51.278;12.588;2024-03-02T06:47:25;99148.81;;;23.16;60.09
14882;BME280;7533;51.278;12.588;2024-03-02T06:52:30;99145.69;;;23.11;60.16
14882;BME280;7533;51.278;12.588;2024-03-02T06:57:33;99146.69;;;23.10;60.18
14882;BME280;7533;51.278;12.588;2024-03-02T07:02:36;99152.09;;;23.10;60.18
14882;BME280;7533;51.278;12.588;2024-03-02T07:07:40;99155.66;;;23.11;60.26
14882;BME280;7533;51.278;12.588;2024-03-02T07:12:43;99154.63;;;23.12;60.29
14882;BME280;7533;51.278;12.588;2024-03-02T07:17:46;99151.09;;;23.11;60.29
14882;BME280;7533;51.278;12.588;2024-03-02T07:22:51;99157.50;;;23.10;60.28
14882;BME280;7533;51.278;12.588;2024-03-02T07:27:53;99161.03;;;23.11;60.32
14882;BME280;7533;51.278;12.588;2024-03-02T07:32:56;99164.75;;;23.10;60.48
14882;BME280;7533;51.278;12.588;2024-03-02T07:38:01;99175.53;;;23.10;60.24
14882;BME280;7533;51.278;12.588;2024-03-02T07:43:04;99171.00;;;23.10;60.40
14882;BME280;7533;51.278;12.588;2024-03-02T07:48:07;99171.84;;;23.11;60.43
14882;BME280;7533;51.278;12.588;2024-03-02T07:53:13;99176.38;;;23.10;60.50
14882;BME280;7533;51.278;12.588;2024-03-02T07:58:16;99171.53;;;22.75;53.15
14882;BME280;7533;51.278;12.588;2024-03-02T08:03:21;99180.84;;;22.23;49.52
14882;BME280;7533;51.278;12.588;2024-03-02T08:08:25;99187.63;;;21.86;49.46
14882;BME280;7533;51.278;12.588;2024-03-02T08:13:28;99189.16;;;22.10;50.92
14882;BME280;7533;51.278;12.588;2024-03-02T08:18:31;99199.16;;;22.29;51.89
14882;BME280;7533;51.278;12.588;2024-03-02T08:23:36;99198.75;;;22.43;52.61
14882;BME280;7533;51.278;12.588;2024-03-02T08:28:42;99203.31;;;22.52;53.46
14882;BME280;7533;51.278;12.588;2024-03-02T08:33:45;99198.91;;;22.61;54.07
14882;BME280;7533;51.278;12.588;2024-03-02T08:38:50;99211.72;;;22.68;54.50
14882;BME280;7533;51.278;12.588;2024-03-02T08:43:53;99199.38;;;22.76;54.64
14882;BME280;7533;51.278;12.588;2024-03-02T08:48:56;99204.78;;;22.85;54.71
14882;BME280;7533;51.278;12.588;2024-03-02T08:54:00;99206.47;;;22.86;55.23
14882;BME280;7533;51.278;12.588;2024-03-02T08:59:05;99212.03;;;22.94;55.28
14882;BME280;7533;51.278;12.588;2024-03-02T09:04:08;99214.31;;;22.99;55.40
14882;BME280;7533;51.278;12.588;2024-03-02T09:09:12;99214.59;;;23.06;55.56
14882;BME280;7533;51.278;12.588;2024-03-02T09:14:15;99222.00;;;23.13;55.55
14882;BME280;7533;51.278;12.588;2024-03-02T09:19:18;99224.13;;;23.19;55.73
14882;BME280;7533;51.278;12.588;2024-03-02T09:24:22;99211.31;;;23.12;56.07
14882;BME280;7533;51.278;12.588;2024-03-02T09:29:26;99228.66;;;23.19;56.31
14882;BME280;7533;51.278;12.588;2024-03-02T09:34:29;99225.38;;;23.15;56.50
14882;BME280;7533;51.278;12.588;2024-03-02T09:39:33;99234.50;;;23.14;56.66
14882;BME280;7533;51.278;12.588;2024-03-02T09:44:36;99237.19;;;23.14;56.70
14882;BME280;7533;51.278;12.588;2024-03-02T09:49:40;99233.91;;;23.20;56.62
14882;BME280;7533;51.278;12.588;2024-03-02T09:54:47;99241.59;;;23.25;56.64
14882;BME280;7533;51.278;12.588;2024-03-02T09:59:50;99228.94;;;23.26;57.01
14882;BME280;7533;51.278;12.588;2024-03-02T10:04:53;99229.78;;;23.26;57.57
14882;BME280;7533;51.278;12.588;2024-03-02T10:09:57;99229.91;;;23.34;57.55
14882;BME280;7533;51.278;12.588;2024-03-02T10:15:03;99234.03;;;23.38;57.73
14882;BME280;7533;51.278;12.588;2024-03-02T10:20:21;99225.78;;;23.40;57.65
14882;BME280;7533;51.278;12.588;2024-03-02T10:25:31;99225.50;;;23.43;57.66
14882;BME280;7533;51.278;12.588;2024-03-02T10:30:51;99218.81;;;23.47;57.70
14882;BME280;7533;51.278;12.588;2024-03-02T10:35:56;99214.44;;;23.46;57.43
14882;BME280;7533;51.278;12.588;2024-03-02T10:41:01;99210.28;;;23.52;57.57
14882;BME280;7533;51.278;12.588;2024-03-02T10:46:05;99209.72;;;23.58;57.43
14882;BME280;7533;51.278;12.588;2024-03-02T10:51:08;99205.00;;;23.60;57.50
14882;BME280;7533;51.278;12.588;2024-03-02T10:56:16;99208.72;;;23.59;57.26
14882;BME280;7533;51.278;12.588;2024-03-02T11:01:26;99202.16;;;23.61;57.39
14882;BME280;7533;51.278;12.588;2024-03-02T11:06:30;99201.75;;;23.66;57.25
14882;BME280;7533;51.278;12.588;2024-03-02T11:11:43;99194.34;;;23.68;57.34
14882;BME280;7533;51.278;12.588;2024-03-02T11:16:46;99201.31;;;23.70;57.16
14882;BME280;7533;51.278;12.588;2024-03-02T11:21:49;99206.28;;;23.75;57.05
14882;BME280;7533;51.278;12.588;2024-03-02T11:26:54;99196.72;;;23.81;57.05
14882;BME280;7533;51.278;12.588;2024-03-02T11:31:59;99198.88;;;23.77;57.04
14882;BME280;7533;51.278;12.588;2024-03-02T11:37:03;99192.63;;;23.77;57.35
14882;BME280;7533;51.278;12.588;2024-03-02T11:42:08;99188.06;;;23.77;57.19
14882;BME280;7533;51.278;12.588;2024-03-02T11:47:12;99182.22;;;23.82;57.20
14882;BME280;7533;51.278;12.588;2024-03-02T11:52:19;99187.59;;;23.91;57.09
14882;BME280;7533;51.278;12.588;2024-03-02T11:57:23;99179.06;;;23.86;57.06
14882;BME280;7533;51.278;12.588;2024-03-02T12:02:29;99177.91;;;23.89;57.17
14882;BME280;7533;51.278;12.588;2024-03-02T12:07:32;99175.94;;;23.91;57.51
14882;BME280;7533;51.278;12.588;2024-03-02T12:12:36;99168.00;;;24.07;57.30
14882;BME280;7533;51.278;12.588;2024-03-02T12:17:39;99167.47;;;24.04;57.84
14882;BME280;7533;51.278;12.588;2024-03-02T12:22:42;99158.91;;;24.08;57.68
14882;BME280;7533;51.278;12.588;2024-03-02T12:27:49;99157.59;;;24.12;57.56
14882;BME280;7533;51.278;12.588;2024-03-02T12:32:53;99159.16;;;24.15;57.26
14882;BME280;7533;51.278;12.588;2024-03-02T12:37:56;99161.53;;;24.18;56.99
14882;BME280;7533;51.278;12.588;2024-03-02T12:43:01;99142.31;;;24.21;56.79
14882;BME280;7533;51.278;12.588;2024-03-02T12:48:04;99140.03;;;24.26;56.12
14882;BME280;7533;51.278;12.588;2024-03-02T12:53:14;99128.88;;;24.29;56.03
14882;BME280;7533;51.278;12.588;2024-03-02T12:58:18;99131.47;;;24.31;55.98
14882;BME280;7533;51.278;12.588;2024-03-02T13:03:22;99124.13;;;24.41;55.73
14882;BME280;7533;51.278;12.588;2024-03-02T13:08:25;99122.44;;;24.40;55.67
14882;BME280;7533;51.278;12.588;2024-03-02T13:13:31;99127.56;;;24.43;55.27
14882;BME280;7533;51.278;12.588;2024-03-02T13:18:36;99120.69;;;24.48;54.59
14882;BME280;7533;51.278;12.588;2024-03-02T13:23:39;99116.91;;;24.59;54.05
14882;BME280;7533;51.278;12.588;2024-03-02T13:28:43;99113.81;;;24.54;54.13
14882;BME280;7533;51.278;12.588;2024-03-02T13:33:46;99113.88;;;24.62;53.79
14882;BME280;7533;51.278;12.588;2024-03-02T13:38:49;99109.47;;;24.61;53.08
14882;BME280;7533;51.278;12.588;2024-03-02T13:43:53;99103.88;;;24.63;52.86
14882;BME280;7533;51.278;12.588;2024-03-02T13:48:57;99101.72;;;24.84;52.87
14882;BME280;7533;51.278;12.588;2024-03-02T13:54:01;99102.84;;;24.99;51.77
14882;BME280;7533;51.278;12.588;2024-03-02T13:59:06;99105.88;;;25.14;51.83
14882;BME280;7533;51.278;12.588;2024-03-02T14:04:09;99101.81;;;25.18;50.91
14882;BME280;7533;51.278;12.588;2024-03-02T14:09:12;99097.25;;;25.19;51.28
14882;BME280;7533;51.278;12.588;2024-03-02T14:14:16;99093.41;;;25.21;50.66
14882;BME280;7533;51.278;12.588;2024-03-02T14:19:19;99098.19;;;25.36;50.73
14882;BME280;7533;51.278;12.588;2024-03-02T14:24:23;99087.66;;;25.58;50.54
14882;BME280;7533;51.278;12.588;2024-03-02T14:29:29;99095.41;;;25.79;49.69
14882;BME280;7533;51.278;12.588;2024-03-02T14:34:31;99094.72;;;25.77;49.72
14882;BME280;7533;51.278;12.588;2024-03-02T14:39:37;99084.16;;;25.66;49.41
14882;BME280;7533;51.278;12.588;2024-03-02T14:44:42;99078.53;;;25.59;49.43
14882;BME280;7533;51.278;12.588;2024-03-02T14:49:45;99085.97;;;25.57;49.29
14882;BME280;7533;51.278;12.588;2024-03-02T14:54:48;99079.50;;;25.50;49.42
14882;BME280;7533;51.278;12.588;2024-03-02T14:59:52;99078.84;;;25.56;49.15
14882;BME280;7533;51.278;12.588;2024-03-02T15:04:56;99080.53;;;25.57;49.08
14882;BME280;7533;51.278;12.588;2024-03-02T15:09:58;99066.84;;;25.59;48.79
14882;BME280;7533;51.278;12.588;2024-03-02T15:15:04;99074.09;;;25.58;48.87
14882;BME280;7533;51.278;12.588;2024-03-02T15:20:08;99065.50;;;25.63;48.55
14882;BME280;7533;51.278;12.588;2024-03-02T15:25:11;99065.88;;;25.68;48.47
14882;BME280;7533;51.278;12.588;2024-03-02T15:30:15;99057.41;;;25.71;48.73
14882;BME280;7533;51.278;12.588;2024-03-02T15:35:19;99066.94;;;25.75;48.27
14882;BME280;7533;51.278;12.588;2024-03-02T15:40:22;99068.31;;;25.79;48.71
14882;BME280;7533;51.278;12.588;2024-03-02T15:45:26;99064.91;;;25.77;48.39
14882;BME280;7533;51.278;12.588;2024-03-02T15:50:35;99058.66;;;25.77;48.37
14882;BME280;7533;51.278;12.588;2024-03-02T15:55:39;99054.25;;;25.76;48.41
14882;BME280;7533;51.278;12.588;2024-03-02T16:00:43;99062.03;;;25.79;48.06
14882;BME280;7533;51.278;12.588;2024-03-02T16:05:46;99059.50;;;25.85;48.30
14882;BME280;7533;51.278;12.588;2024-03-02T16:10:49;99059.50;;;25.85;48.67
14882;BME280;7533;51.278;12.588;2024-03-02T16:15:54;99052.09;;;25.88;49.17
14882;BME280;7533;51.278;12.588;2024-03-02T16:20:57;99043.06;;;25.79;49.07
14882;BME280;7533;51.278;12.588;2024-03-02T16:26:02;99060.34;;;25.78;49.37
14882;BME280;7533;51.278;12.588;2024-03-02T16:31:06;99054.72;;;25.71;49.95
14882;BME280;7533;51.278;12.588;2024-03-02T16:36:11;99059.59;;;25.68;49.81
14882;BME280;7533;51.278;12.588;2024-03-02T16:41:14;99057.19;;;25.56;50.32
14882;BME280;7533;51.278;12.588;2024-03-02T16:46:20;99052.28;;;25.60;50.33
14882;BME280;7533;51.278;12.588;2024-03-02T16:51:23;99060.56;;;25.58;50.92
14882;BME280;7533;51.278;12.588;2024-03-02T16:56:26;99056.16;;;25.57;50.66
14882;BME280;7533;51.278;12.588;2024-03-02T17:01:32;99068.56;;;25.60;51.07
14882;BME280;7533;51.278;12.588;2024-03-02T17:06:35;99069.75;;;25.66;51.22
14882;BME280;7533;51.278;12.588;2024-03-02T17:11:38;99070.13;;;25.71;51.06
14882;BME280;7533;51.278;12.588;2024-03-02T17:16:42;99074.06;;;25.76;51.04
14882;BME280;7533;51.278;12.588;2024-03-02T17:21:45;99083.72;;;25.79;51.11
14882;BME280;7533;51.278;12.588;2024-03-02T17:26:48;99084.63;;;25.88;51.12
14882;BME280;7533;51.278;12.588;2024-03-02T17:31:52;99087.50;;;25.94;51.41
14882;BME280;7533;51.278;12.588;2024-03-02T17:36:57;99092.28;;;26.00;51.26
14882;BME280;7533;51.278;12.588;2024-03-02T17:42:00;99094.16;;;26.08;51.18
14882;BME280;7533;51.278;12.588;2024-03-02T17:47:05;99104.34;;;26.14;51.00
14882;BME280;7533;51.278;12.588;2024-03-02T17:52:08;99106.25;;;26.22;51.05
14882;BME280;7533;51.278;12.588;2024-03-02T17:57:11;99117.94;;;26.30;50.84
14882;BME280;7533;51.278;12.588;2024-03-02T18:02:15;99116.59;;;26.34;50.77
14882;BME280;7533;51.278;12.588;2024-03-02T18:07:18;99117.13;;;26.38;50.71
14882;BME280;7533;51.278;12.588;2024-03-02T18:12:21;99115.56;;;26.35;51.02
14882;BME280;7533;51.278;12.588;2024-03-02T18:17:25;99108.13;;;26.37;50.96
14882;BME280;7533;51.278;12.588;2024-03-02T18:22:28;99116.31;;;26.46;50.48
14882;BME280;7533;51.278;12.588;2024-03-02T18:27:33;99104.44;;;26.47;50.81
14882;BME280;7533;51.278;12.588;2024-03-02T18:32:39;99114.78;;;26.51;50.63
14882;BME280;7533;51.278;12.588;2024-03-02T18:37:42;99113.44;;;26.55;50.77
14882;BME280;7533;51.278;12.588;2024-03-02T18:42:47;99109.88;;;26.63;50.52
14882;BME280;7533;51.278;12.588;2024-03-02T18:47:51;99106.16;;;26.56;50.82
14882;BME280;7533;51.278;12.588;2024-03-02T18:52:55;99113.78;;;26.69;50.35
14882;BME280;7533;51.278;12.588;2024-03-02T18:58:00;99107.34;;;26.70;50.56
14882;BME280;7533;51.278;12.588;2024-03-02T19:03:04;99116.50;;;26.77;50.35
14882;BME280;7533;51.278;12.588;2024-03-02T19:08:11;99113.78;;;26.69;50.61
14882;BME280;7533;51.278;12.588;2024-03-02T19:13:19;99107.34;;;26.86;50.40
14882;BME280;7533;51.278;12.588;2024-03-02T19:18:24;99108.19;;;26.86;50.56
14882;BME280;7533;51.278;12.588;2024-03-02T19:23:27;99107.38;;;26.94;50.29
14882;BME280;7533;51.278;12.588;2024-03-02T19:28:40;99109.56;;;26.74;50.68
14882;BME280;7533;51.278;12.588;2024-03-02T19:33:44;99100.22;;;26.85;50.57
14882;BME280;7533;51.278;12.588;2024-03-02T19:38:47;99096.81;;;26.99;50.15
14882;BME280;7533;51.278;12.588;2024-03-02T19:43:50;99096.16;;;27.05;50.14
14882;BME280;7533;51.278;12.588;2024-03-02T19:48:56;99090.91;;;27.12;50.03
14882;BME280;7533;51.278;12.588;2024-03-02T19:53:58;99078.50;;;27.09;50.07
14882;BME280;7533;51.278;12.588;2024-03-02T19:59:04;99076.81;;;27.08;50.10
14882;BME280;7533;51.278;12.588;2024-03-02T20:04:09;99076.97;;;26.99;49.96
14882;BME280;7533;51.278;12.588;2024-03-02T20:09:12;99075.94;;;27.16;49.89
14882;BME280;7533;51.278;12.588;2024-03-02T20:14:16;99071.88;;;27.20;49.91
14882;BME280;7533;51.278;12.588;2024-03-02T20:19:20;99063.06;;;27.18;49.91
14882;BME280;7533;51.278;12.588;2024-03-02T20:24:24;99062.53;;;27.23;49.48
14882;BME280;7533;51.278;12.588;2024-03-02T20:29:27;99060.31;;;27.26;49.67
14882;BME280;7533;51.278;12.588;2024-03-02T20:34:32;99055.38;;;27.30;49.64
14882;BME280;7533;51.278;12.588;2024-03-02T20:39:35;99045.53;;;27.29;49.53
14882;BME280;7533;51.278;12.588;2024-03-02T20:44:38;99040.78;;;27.31;49.58
14882;BME280;7533;51.278;12.588;2024-03-02T20:49:42;99045.69;;;27.35;49.45
14882;BME280;7533;51.278;12.588;2024-03-02T20:54:45;99033.13;;;27.34;49.65
14882;BME280;7533;51.278;12.588;2024-03-02T20:59:48;99015.28;;;27.40;49.57
14882;BME280;7533;51.278;12.588;2024-03-02T21:04:53;99024.94;;;27.42;49.54
14882;BME280;7533;51.278;12.588;2024-03-02T21:09:55;99025.78;;;27.43;49.55
14882;BME280;7533;51.278;12.588;2024-03-02T21:14:58;99023.56;;;27.47;49.42
14882;BME280;7533;51.278;12.588;2024-03-02T21:20:03;99028.34;;;27.45;49.37
14882;BME280;7533;51.278;12.588;2024-03-02T21:25:10;99025.97;;;27.41;49.41
14882;BME280;7533;51.278;12.588;2024-03-02T21:30:14;99025.31;;;27.39;49.17
14882;BME280;7533;51.278;12.588;2024-03-02T21:35:20;99028.03;;;27.39;49.50
14882;BME280;7533;51.278;12.588;2024-03-02T21:40:24;99024.22;;;27.49;49.37
14882;BME280;7533;51.278;12.588;2024-03-02T21:45:27;99027.31;;;27.46;49.63
14882;BME280;7533;51.278;12.588;2024-03-02T21:50:32;99015.56;;;27.53;49.27
14882;BME280;7533;51.278;12.588;2024-03-02T21:55:35;99018.78;;;27.49;49.46
14882;BME280;7533;51.278;12.588;2024-03-02T22:00:38;99017.47;;;27.45;49.71
14882;BME280;7533;51.278;12.588;2024-03-02T22:05:43;99009.47;;;27.51;49.63
14882;BME280;7533;51.278;12.588;2024-03-02T22:10:45;99005.97;;;27.34;49.78
14882;BME280;7533;51.278;12.588;2024-03-02T22:15:48;98992.50;;;27.41;49.84
14882;BME280;7533;51.278;12.588;2024-03-02T22:20:53;98988.38;;;27.53;49.68
14882;BME280;7533;51.278;12.588;2024-03-02T22:25:58;98981.19;;;27.60;49.54
14882;BME280;7533;51.278;12.588;2024-03-02T22:31:01;98979.88;;;27.56;49.68
14882;BME280;7533;51.278;12.588;2024-03-02T22:36:07;98981.38;;;27.59;49.67
14882;BME280;7533;51.278;12.588;2024-03-02T22:41:10;98978.66;;;27.59;49.50
14882;BME280;7533;51.278;12.588;2024-03-02T22:46:13;98979.69;;;27.58;49.71
14882;BME280;7533;51.278;12.588;2024-03-02T22:51:21;98979.69;;;27.58;49.39
14882;BME280;7533;51.278;12.588;2024-03-02T22:56:24;98978.00;;;27.57;49.90
14882;BME280;7533;51.278;12.588;2024-03-02T23:01:27;98981.78;;;27.48;49.74
14882;BME280;7533;51.278;12.588;2024-03-02T23:06:31;98982.66;;;27.40;50.06
14882;BME280;7533;51.278;12.588;2024-03-02T23:11:34;98980.09;;;27.47;50.01
14882;BME280;7533;51.278;12.588;2024-03-02T23:16:37;98979.91;;;27.48;50.28
14882;BME280;7533;51.278;12.588;2024-03-02T23:21:47;98976.00;;;27.51;50.18
14882;BME280;7533;51.278;12.588;2024-03-02T23:26:49;98975.16;;;27.50;50.40
14882;BME280;7533;51.278;12.588;2024-03-02T23:31:54;98974.97;;;27.52;50.28
14882;BME280;7533;51.278;12.588;2024-03-02T23:36:58;98974.59;;;27.55;50.26
14882;BME280;7533;51.278;12.588;2024-03-02T23:42:01;98969.16;;;27.55;50.33
14882;BME280;7533;51.278;12.588;2024-03-02T23:47:04;98965.59;;;27.54;50.37
14882;BME280;7533;51.278;12.588;2024-03-02T23:52:10;98961.00;;;27.55;50.34
14882;BME280;7533;51.278;12.588;2024-03-02T23:57:13;98952.69;;;27.56;50.47
